Time;durP1;ratioP1;P1;durP2;ratioP2;P2;SDS_P1;SDS_P2;PMS_P1;PMS_P2;Temp;Humidity;BMP_temperature;BMP_pressure;BME280_temperature;BME280_humidity;BME280_pressure;Samples;Min_cycle;Max_cycle;Signal;HPM_P1;HPM_P2
2021/12/05 00:23:14;;;;;;;11.80;7.55;;;;;;;0.56;100.00;99897.00;5245719;28;20036;-83
2021/12/05 00:25:50;;;;;;;8.98;6.93;;;;;;;0.23;100.00;99850.22;5245473;28;20032;-83
2021/12/05 00:47:39;;;;;;;8.70;6.53;;;;;;;0.35;100.00;99887.50;5244642;28;20286;-84
2021/12/05 00:50:40;;;;;;;7.18;6.47;;;;;;;0.37;100.00;99872.19;5242074;28;20025;-84
2021/12/05 00:56:45;;;;;;;7.00;5.80;;;;;;;0.03;100.00;99807.03;5236898;28;20039;-84
2021/12/05 01:12:39;;;;;;;7.45;6.85;;;;;;;0.45;100.00;99879.09;5243188;28;20051;-83
2021/12/05 01:15:15;;;;;;;12.13;7.15;;;;;;;0.23;100.00;99823.66;5241456;28;20021;-84
2021/12/05 01:18:06;;;;;;;19.63;7.32;;;;;;;0.74;100.00;99886.44;5242580;28;20078;-84
2021/12/05 01:20:40;;;;;;;14.45;7.40;;;;;;;0.62;100.00;99849.13;5243174;28;20047;-84
2021/12/05 01:23:33;;;;;;;6.45;5.95;;;;;;;0.80;100.00;99880.28;5241604;28;20025;-84
2021/12/05 01:50:42;;;;;;;5.53;5.07;;;;;;;1.12;100.00;99843.00;5243821;28;20064;-84
2021/12/05 01:56:10;;;;;;;9.07;6.22;;;;;;;1.51;100.00;99879.00;5242836;28;20062;-84
2021/12/05 02:35:54;;;;;;;10.10;5.53;;;;;;;2.04;100.00;99833.94;5240211;28;20040;-84
2021/12/05 02:40:29;;;;;;;5.97;5.43;;;;;;;2.30;100.00;99854.91;5237048;28;20025;-85
2021/12/05 02:45:37;;;;;;;7.45;6.75;;;;;;;2.24;100.00;99853.13;5236024;28;20086;-84
2021/12/05 02:48:09;;;;;;;8.75;6.00;;;;;;;2.21;100.00;99847.44;5251873;28;20031;-87
2021/12/05 02:50:40;;;;;;;9.43;5.38;;;;;;;2.12;100.00;99857.59;5235001;28;20067;-84
2021/12/05 02:53:21;;;;;;;7.45;5.30;;;;;;;1.78;100.00;99802.34;5236118;28;20028;-87
2021/12/05 02:55:51;;;;;;;13.35;7.10;;;;;;;2.01;100.00;99853.84;5234858;28;20033;-84
2021/12/05 03:03:32;;;;;;;9.00;6.13;;;;;;;1.61;100.00;99779.00;5236307;28;20041;-86
2021/12/05 03:06:19;;;;;;;6.43;5.80;;;;;;;1.89;100.00;99822.88;5235184;28;20037;-87
2021/12/05 03:08:59;;;;;;;7.28;6.63;;;;;;;2.00;100.00;99830.94;5236282;28;20066;-86
2021/12/05 03:11:30;;;;;;;12.70;6.68;;;;;;;1.60;100.00;99763.28;5234834;28;20025;-85
2021/12/05 03:14:01;;;;;;;7.38;6.82;;;;;;;1.89;100.00;99797.06;5235375;28;20028;-85
2021/12/05 03:16:34;;;;;;;8.02;7.22;;;;;;;2.20;100.00;99837.84;5235988;28;20025;-87
2021/12/05 03:19:07;;;;;;;10.55;6.85;;;;;;;2.22;100.00;99849.06;5234320;28;20526;-85
2021/12/05 03:21:39;;;;;;;8.90;7.03;;;;;;;2.08;100.00;99829.78;5234729;28;20059;-85
2021/12/05 03:24:12;;;;;;;8.93;8.13;;;;;;;1.94;100.00;99791.88;5233992;28;20021;-84
2021/12/05 03:26:45;;;;;;;14.43;7.70;;;;;;;1.88;100.00;99795.44;5235704;28;20107;-87
2021/12/05 03:29:18;;;;;;;8.70;7.90;;;;;;;1.96;100.00;99797.81;5234444;28;20144;-84
2021/12/05 03:31:52;;;;;;;9.45;8.63;;;;;;;2.28;100.00;99835.66;5234354;28;20613;-84
2021/12/05 03:34:23;;;;;;;8.18;7.38;;;;;;;2.26;100.00;99819.09;5234197;28;20032;-85
2021/12/05 03:36:57;;;;;;;12.15;8.02;;;;;;;2.34;100.00;99824.06;5234293;28;20021;-86
2021/12/05 03:39:28;;;;;;;11.48;7.07;;;;;;;2.36;100.00;99829.19;5233887;28;20025;-84
2021/12/05 03:41:59;;;;;;;9.05;7.28;;;;;;;2.12;100.00;99806.19;5234277;28;20017;-84
2021/12/05 03:44:31;;;;;;;9.10;8.38;;;;;;;2.30;100.00;99819.47;5233659;28;20086;-85
2021/12/05 03:47:05;;;;;;;11.35;8.13;;;;;;;2.48;100.00;99830.03;5233474;28;20025;-85
2021/12/05 03:49:36;;;;;;;13.77;9.30;;;;;;;2.49;100.00;99831.66;5233636;28;20043;-88
2021/12/05 03:52:13;;;;;;;9.43;8.70;;;;;;;2.14;100.00;99780.13;5234110;28;20445;-85
2021/12/05 03:54:44;;;;;;;8.38;7.68;;;;;;;2.52;100.00;99833.88;5234654;28;20025;-83
2021/12/05 03:57:16;;;;;;;11.63;7.68;;;;;;;2.26;100.00;99792.47;5235136;28;20025;-83
2021/12/05 03:59:47;;;;;;;9.38;8.48;;;;;;;2.40;100.00;99814.38;5235185;28;20382;-83
2021/12/05 04:02:17;;;;;;;11.07;7.47;;;;;;;2.40;100.00;99808.22;5233827;28;20116;-83
2021/12/05 04:04:49;;;;;;;6.70;6.20;;;;;;;2.55;100.00;99832.59;5234519;28;20148;-83
2021/12/05 04:07:20;;;;;;;15.30;7.93;;;;;;;2.56;100.00;99839.56;5234290;28;20136;-83
2021/12/05 04:09:51;;;;;;;6.47;5.97;;;;;;;2.52;100.00;99825.88;5232339;28;20056;-82
2021/12/05 04:12:22;;;;;;;6.57;6.07;;;;;;;2.23;100.00;99782.25;5233047;28;20025;-82
2021/12/05 04:14:54;;;;;;;12.38;8.52;;;;;;;2.48;100.00;99826.56;5233943;28;20471;-83
2021/12/05 04:17:25;;;;;;;8.27;6.78;;;;;;;2.28;100.00;99784.25;5234886;28;20029;-84
2021/12/05 04:19:56;;;;;;;6.63;6.13;;;;;;;2.55;100.00;99833.41;5234591;28;20021;-84
2021/12/05 04:22:26;;;;;;;9.63;6.47;;;;;;;2.43;100.00;99816.56;5234656;28;20016;-83
2021/12/05 04:24:57;;;;;;;12.27;7.65;;;;;;;2.19;100.00;99772.28;5234417;28;20025;-83
2021/12/05 04:27:28;;;;;;;8.23;7.53;;;;;;;2.31;100.00;99794.44;5249191;28;20063;-84
2021/12/05 04:29:58;;;;;;;9.98;7.72;;;;;;;2.42;100.00;99809.63;5234108;28;20025;-84
2021/12/05 04:32:29;;;;;;;11.38;6.95;;;;;;;2.46;100.00;99810.00;5234315;28;20490;-84
2021/12/05 04:35:00;;;;;;;8.68;7.43;;;;;;;2.43;100.00;99829.91;5231964;28;20025;-83
2021/12/05 04:37:31;;;;;;;17.27;8.25;;;;;;;2.54;100.00;99829.13;5232574;28;20035;-83
2021/12/05 04:40:04;;;;;;;6.22;5.78;;;;;;;2.53;100.00;99830.16;5233646;28;20029;-83
2021/12/05 04:42:35;;;;;;;7.18;6.47;;;;;;;2.52;100.00;99841.88;5232116;28;20032;-82
2021/12/05 04:45:10;;;;;;;11.93;7.93;;;;;;;2.40;100.00;99825.03;5232798;28;20421;-83
2021/12/05 04:47:40;;;;;;;6.78;6.20;;;;;;;2.46;100.00;99845.44;5233494;28;20021;-84
2021/12/05 04:50:20;;;;;;;5.78;5.47;;;;;;;2.08;100.00;99797.00;5232080;28;20028;-84
2021/12/05 04:52:51;;;;;;;7.10;6.43;;;;;;;2.03;100.00;99787.84;5232533;28;20025;-84
2021/12/05 04:55:23;;;;;;;5.20;4.90;;;;;;;2.41;100.00;99837.31;5289438;22;20052;-82
2021/12/05 04:57:54;;;;;;;5.43;4.95;;;;;;;2.40;100.00;99845.53;5256808;28;20121;-83
2021/12/05 05:00:28;;;;;;;7.95;6.32;;;;;;;1.94;100.00;99786.56;5256340;28;20025;-84
2021/12/05 05:02:59;;;;;;;5.93;5.30;;;;;;;2.26;100.00;99821.75;5253563;28;20052;-81
2021/12/05 05:05:31;;;;;;;11.23;7.25;;;;;;;2.32;100.00;99834.16;5253889;28;20025;-83
2021/12/05 05:08:02;;;;;;;8.20;6.32;;;;;;;2.34;100.00;99844.56;5254815;28;20110;-84
2021/12/05 05:10:34;;;;;;;5.68;5.28;;;;;;;2.25;100.00;99819.31;5265902;28;20027;-82
2021/12/05 05:13:05;;;;;;;6.20;5.63;;;;;;;2.25;100.00;99832.63;5266559;28;20020;-80
2021/12/05 05:15:35;;;;;;;6.40;6.03;;;;;;;2.15;100.00;99811.06;5251788;28;20109;-82
2021/12/05 05:18:08;;;;;;;6.22;5.82;;;;;;;1.89;100.00;99770.44;5250408;28;20044;-82
2021/12/05 05:21:06;;;;;;;5.72;5.43;;;;;;;2.07;100.00;99798.88;5252007;28;20490;-80
2021/12/05 05:24:08;;;;;;;7.03;6.53;;;;;;;2.31;100.00;99834.41;5259215;28;20088;-82
2021/12/05 05:43:24;;;;;;;8.65;8.05;;;;;;;2.21;100.00;99834.13;5254228;28;20037;-81
2021/12/05 05:46:05;;;;;;;6.97;6.47;;;;;;;2.35;100.00;99864.84;5249700;28;20421;-81
2021/12/05 05:49:32;;;;;;;7.47;6.93;;;;;;;2.35;100.00;99860.34;5251259;28;20024;-80
2021/12/05 05:51:27;;;;;;;8.55;7.75;;;;;;;2.37;100.00;99860.13;5237296;28;20028;-81
2021/12/05 05:53:57;;;;;;;7.30;6.70;;;;;;;2.38;100.00;99869.72;5257746;28;20055;-80
2021/12/05 05:56:29;;;;;;;6.75;6.30;;;;;;;2.38;100.00;99865.22;5263210;28;20028;-80
2021/12/05 05:59:23;;;;;;;7.85;7.15;;;;;;;2.33;100.00;99857.09;5263120;28;20021;-81
2021/12/05 06:04:23;;;;;;;8.95;8.18;;;;;;;2.34;100.00;99857.91;5250985;28;20032;-81
2021/12/05 06:06:54;;;;;;;9.30;8.32;;;;;;;2.23;100.00;99848.84;5250886;28;20017;-82
2021/12/05 06:09:24;;;;;;;8.10;7.40;;;;;;;2.29;100.00;99850.63;5249172;28;20259;-81
2021/12/05 06:11:55;;;;;;;9.32;8.65;;;;;;;2.40;100.00;99880.97;5249574;28;20016;-81
2021/12/05 06:14:27;;;;;;;10.88;8.85;;;;;;;2.35;100.00;99868.31;5252941;28;20034;-83
2021/12/05 06:16:57;;;;;;;9.07;8.25;;;;;;;2.41;100.00;99879.94;5256952;28;20471;-83
2021/12/05 06:19:28;;;;;;;8.30;7.60;;;;;;;2.41;100.00;99874.59;5256834;28;20067;-80
2021/12/05 06:21:58;;;;;;;8.85;8.25;;;;;;;2.42;100.00;99878.91;5250664;28;20451;-81
2021/12/05 06:24:29;;;;;;;13.57;9.43;;;;;;;1.98;100.00;99806.38;5250398;28;20033;-80
2021/12/05 06:27:01;;;;;;;9.07;8.32;;;;;;;2.41;100.00;99879.94;5250412;28;20441;-81
2021/12/05 06:29:37;;;;;;;9.23;8.60;;;;;;;2.41;100.00;99882.59;5258772;28;20039;-80
2021/12/05 06:37:53;;;;;;;8.07;7.57;;;;;;;2.38;100.00;99881.19;5266048;28;20146;-81
2021/12/05 06:46:12;;;;;;;8.77;8.10;;;;;;;2.30;100.00;99875.41;5264021;28;20043;-79
2021/12/05 06:48:43;;;;;;;9.85;9.20;;;;;;;2.22;100.00;99881.03;5257609;28;20021;-82
2021/12/05 06:51:20;;;;;;;8.55;7.70;;;;;;;2.20;100.00;99865.28;5249889;28;20024;-82
2021/12/05 06:53:51;;;;;;;9.80;9.10;;;;;;;2.27;100.00;99894.50;5249638;28;20033;-81
2021/12/05 06:56:22;;;;;;;9.18;8.07;;;;;;;2.35;100.00;99891.50;5249150;28;20016;-82
2021/12/05 06:58:53;;;;;;;10.40;9.27;;;;;;;2.37;100.00;99894.75;5250415;28;20032;-82
2021/12/05 07:01:24;;;;;;;9.05;8.35;;;;;;;2.32;100.00;99895.41;5250566;28;20435;-81
2021/12/05 07:03:56;;;;;;;7.57;7.07;;;;;;;2.39;100.00;99908.66;5249498;28;20024;-82
2021/12/05 07:06:29;;;;;;;6.97;6.32;;;;;;;2.40;100.00;99904.97;5250503;28;20440;-81
2021/12/05 07:09:06;;;;;;;8.70;8.18;;;;;;;2.27;100.00;99900.63;5251287;28;20036;-82
2021/12/05 07:12:21;;;;;;;8.38;7.75;;;;;;;2.32;100.00;99903.41;5253059;28;20035;-83
2021/12/05 07:14:52;;;;;;;7.50;7.10;;;;;;;2.33;100.00;99910.38;5253106;28;20119;-82
2021/12/05 07:20:13;;;;;;;7.78;7.28;;;;;;;2.38;100.00;99929.16;5269060;28;20032;-81
2021/12/05 07:23:34;;;;;;;7.28;6.78;;;;;;;2.12;100.00;99886.88;5257795;28;20024;-81
2021/12/05 07:26:04;;;;;;;6.80;6.18;;;;;;;2.30;100.00;99920.69;5253753;28;20039;-81
2021/12/05 07:42:42;;;;;;;8.32;7.70;;;;;;;2.43;100.00;99936.47;5264589;28;20036;-82
2021/12/05 07:45:19;;;;;;;8.07;7.38;;;;;;;2.50;100.00;99950.53;5265494;28;20024;-82
2021/12/05 07:47:52;;;;;;;7.43;6.75;;;;;;;2.51;100.00;99952.16;5267262;28;20027;-81
2021/12/05 07:50:30;;;;;;;7.07;6.63;;;;;;;2.37;100.00;99932.03;5269301;28;20020;-82
2021/12/05 07:53:08;;;;;;;7.07;6.78;;;;;;;1.89;100.00;99868.13;5266763;28;20028;-80
2021/12/05 07:55:43;;;;;;;6.63;6.13;;;;;;;2.39;100.00;99932.63;5265892;28;20036;-81
2021/12/05 08:14:49;;;;;;;7.75;7.32;;;;;;;2.55;100.00;99985.31;5272011;28;20040;-81
2021/12/05 08:17:21;;;;;;;7.22;6.82;;;;;;;2.59;100.00;99991.84;5272016;28;20024;-81
2021/12/05 08:20:12;;;;;;;9.10;8.50;;;;;;;2.30;100.00;99936.66;5270718;28;20043;-83
2021/12/05 08:22:43;;;;;;;7.13;6.63;;;;;;;2.12;100.00;99900.19;5266260;28;20080;-83
2021/12/05 08:25:16;;;;;;;8.57;8.07;;;;;;;1.83;100.00;99875.16;5266296;28;20061;-84
2021/12/05 08:27:51;;;;;;;9.15;7.25;;;;;;;2.16;100.00;99917.38;5263948;28;20031;-82
2021/12/05 08:30:34;;;;;;;8.80;8.20;;;;;;;2.65;100.00;99996.25;5255388;28;20032;-82
2021/12/05 08:33:31;;;;;;;8.05;7.47;;;;;;;2.67;100.00;99999.50;5255827;28;20046;-82
2021/12/05 08:39:21;;;;;;;7.90;7.43;;;;;;;2.53;100.00;99984.72;5256359;28;20037;-83
2021/12/05 08:45:11;;;;;;;9.68;8.98;;;;;;;2.71;100.00;100007.88;5264166;28;20062;-81
2021/12/05 09:21:49;;;;;;;8.00;7.43;;;;;;;2.29;100.00;99989.13;5265186;28;20028;-82
2021/12/05 10:09:07;;;;;;;10.15;9.23;;;;;;;2.91;100.00;100119.59;5255967;28;20066;-83
2021/12/05 10:26:03;;;;;;;6.03;5.72;;;;;;;2.47;100.00;100065.56;5253867;28;20528;-81
2021/12/05 10:37:05;;;;;;;7.72;7.20;;;;;;;2.82;100.00;100088.94;5252027;28;20066;-82
2021/12/05 10:39:36;;;;;;;7.25;6.75;;;;;;;2.86;100.00;100106.94;5253777;28;20021;-81
2021/12/05 10:42:40;;;;;;;7.10;6.32;;;;;;;2.97;100.00;100098.16;5257335;28;20020;-82
2021/12/05 10:45:19;;;;;;;7.10;6.70;;;;;;;3.22;100.00;100132.72;5253113;28;20111;-82
2021/12/05 10:47:52;;;;;;;7.72;7.28;;;;;;;3.24;100.00;100141.31;5254857;28;20033;-82
2021/12/05 10:50:45;;;;;;;7.45;6.95;;;;;;;3.26;100.00;100141.91;5254181;28;20017;-82
2021/12/05 10:56:18;;;;;;;8.20;7.70;;;;;;;3.44;100.00;100150.94;5250920;28;20048;-86
2021/12/05 10:58:59;;;;;;;7.15;6.60;;;;;;;3.38;100.00;100133.97;5256298;28;20029;-86
2021/12/05 11:01:32;;;;;;;7.80;7.22;;;;;;;3.48;100.00;100152.91;5256565;28;20085;-85
2021/12/05 11:04:11;;;;;;;7.15;6.68;;;;;;;2.90;100.00;100075.28;5256090;28;20103;-86
2021/12/05 11:06:55;;;;;;;7.75;7.28;;;;;;;3.45;100.00;100157.91;5256221;28;20028;-86
2021/12/05 11:09:32;;;;;;;7.75;7.25;;;;;;;3.23;100.00;100125.53;5254966;28;20043;-86
2021/12/05 11:12:10;;;;;;;6.95;6.55;;;;;;;3.53;100.00;100160.22;5256050;28;20025;-85
2021/12/05 11:15:08;;;;;;;8.23;7.63;;;;;;;3.28;100.00;100131.00;5256636;28;20039;-86
2021/12/05 11:17:43;;;;;;;7.93;7.38;;;;;;;3.56;100.00;100152.59;5255293;28;20449;-86
2021/12/05 11:20:29;;;;;;;7.55;6.97;;;;;;;3.64;100.00;100168.28;5254697;28;20029;-86
2021/12/05 11:23:00;;;;;;;7.72;7.22;;;;;;;3.21;100.00;100101.75;5254832;28;20044;-85
2021/12/05 11:25:35;;;;;;;7.18;6.68;;;;;;;3.15;100.00;100110.69;5255414;28;20029;-86
2021/12/05 11:28:08;;;;;;;8.23;7.72;;;;;;;3.46;100.00;100143.50;5255053;28;20029;-86
2021/12/05 11:30:40;;;;;;;8.65;8.13;;;;;;;3.56;100.00;100160.59;5256461;28;20023;-85
2021/12/05 11:33:19;;;;;;;7.95;7.43;;;;;;;3.71;100.00;100185.03;5256710;28;20016;-86
2021/12/05 11:35:57;;;;;;;6.45;6.05;;;;;;;3.71;100.00;100184.22;5256240;28;20028;-86
2021/12/05 11:38:34;;;;;;;7.35;6.85;;;;;;;3.74;100.00;100189.09;5256039;28;20101;-86
2021/12/05 11:41:10;;;;;;;8.45;7.93;;;;;;;3.32;100.00;100138.34;5255801;28;20035;-86
2021/12/05 11:43:44;;;;;;;8.52;8.02;;;;;;;3.66;100.00;100186.75;5254649;28;20075;-86
2021/12/05 11:46:17;;;;;;;10.10;9.40;;;;;;;3.75;100.00;100200.59;5255736;28;20548;-86
2021/12/05 11:48:51;;;;;;;9.00;8.43;;;;;;;3.81;100.00;100200.47;5254515;28;20028;-86
2021/12/05 11:51:36;;;;;;;9.18;8.48;;;;;;;3.77;100.00;100204.66;5254661;28;20056;-86
2021/12/05 11:54:22;;;;;;;7.53;6.85;;;;;;;3.72;100.00;100197.34;5255241;28;20073;-86
2021/12/05 11:56:56;;;;;;;9.50;8.75;;;;;;;3.23;100.00;100133.53;5253903;28;20055;-86
2021/12/05 11:59:35;;;;;;;10.23;9.55;;;;;;;3.16;100.00;100116.81;5255539;28;20017;-85
2021/12/05 12:02:19;;;;;;;9.90;9.17;;;;;;;3.69;100.00;100205.00;5254498;28;20063;-86
2021/12/05 12:04:58;;;;;;;9.77;9.07;;;;;;;3.71;100.00;100205.59;5253548;28;20115;-86
2021/12/05 12:07:40;;;;;;;10.80;9.98;;;;;;;3.69;100.00;100203.13;5253474;28;20020;-87
2021/12/05 12:10:23;;;;;;;9.75;8.90;;;;;;;3.69;100.00;100194.31;5255221;28;20115;-86
2021/12/05 12:13:01;;;;;;;9.27;8.70;;;;;;;3.34;100.00;100154.94;5255069;28;20027;-86
2021/12/05 12:15:33;;;;;;;12.80;9.90;;;;;;;3.66;100.00;100213.44;5254754;28;20032;-86
2021/12/05 12:18:13;;;;;;;10.85;9.95;;;;;;;3.66;100.00;100208.94;5253641;28;20038;-86
2021/12/05 12:20:46;;;;;;;9.63;8.93;;;;;;;3.40;100.00;100166.56;5253947;28;20078;-86
2021/12/05 12:23:18;;;;;;;9.98;9.30;;;;;;;3.04;100.00;100093.56;5253656;28;20070;-86
2021/12/05 12:25:52;;;;;;;10.63;10.00;;;;;;;3.01;100.00;100104.69;5253380;28;20021;-85
2021/12/05 12:28:24;;;;;;;9.65;9.05;;;;;;;3.09;100.00;100114.25;5253591;28;20040;-85
2021/12/05 12:31:02;;;;;;;9.40;8.80;;;;;;;3.30;100.00;100166.28;5255035;28;20039;-85
2021/12/05 12:33:36;;;;;;;12.35;11.38;;;;;;;3.47;100.00;100182.47;5254039;28;20020;-85
2021/12/05 12:36:06;;;;;;;12.60;11.65;;;;;;;3.74;100.00;100231.84;5253896;28;20029;-86
2021/12/05 12:38:41;;;;;;;13.27;11.93;;;;;;;3.77;100.00;100233.22;5256887;28;20088;-84
2021/12/05 12:41:19;;;;;;;14.07;12.88;;;;;;;3.78;100.00;100226.81;5253691;28;20025;-85
2021/12/05 12:43:55;;;;;;;11.70;10.77;;;;;;;3.21;100.00;100155.09;5254750;28;20024;-83
2021/12/05 12:46:38;;;;;;;14.00;12.75;;;;;;;3.81;100.00;100224.53;5255645;28;20439;-84
2021/12/05 12:49:15;;;;;;;11.88;10.85;;;;;;;3.83;100.00;100230.44;5266598;28;20017;-84
2021/12/05 12:51:59;;;;;;;11.02;10.00;;;;;;;3.82;100.00;100236.84;5264588;28;20151;-85
2021/12/05 12:54:49;;;;;;;10.65;9.85;;;;;;;3.83;100.00;100237.66;5253427;28;20025;-85
2021/12/05 12:57:23;;;;;;;12.55;11.55;;;;;;;3.84;100.00;100241.94;5253893;28;20035;-85
2021/12/05 13:00:15;;;;;;;12.38;11.38;;;;;;;3.56;100.00;100207.81;5253330;28;20132;-85
2021/12/05 13:11:05;;;;;;;10.48;9.63;;;;;;;3.72;100.00;100239.25;5255015;28;19981;-85
2021/12/05 13:13:39;;;;;;;11.90;11.02;;;;;;;3.82;100.00;100255.53;5253287;28;20032;-85
2021/12/05 13:16:16;;;;;;;10.93;9.93;;;;;;;3.80;100.00;100265.63;5254878;28;20052;-85
2021/12/05 13:18:56;;;;;;;10.07;8.85;;;;;;;3.85;100.00;100265.75;5254292;28;20046;-85
2021/12/05 13:21:35;;;;;;;12.80;11.82;;;;;;;3.60;100.00;100238.38;5254808;28;20027;-85
2021/12/05 13:24:18;;;;;;;12.05;11.13;;;;;;;3.92;100.00;100282.53;5254661;28;20075;-85
2021/12/05 13:26:48;;;;;;;12.88;11.52;;;;;;;3.73;100.00;100256.91;5255626;28;20028;-85
2021/12/05 13:29:20;;;;;;;10.95;10.23;;;;;;;3.96;100.00;100282.88;5258586;28;20071;-84
2021/12/05 13:32:10;;;;;;;9.73;9.05;;;;;;;3.96;100.00;100282.88;5255856;28;20104;-84
2021/12/05 13:34:41;;;;;;;13.10;10.38;;;;;;;3.97;100.00;100280.00;5254573;28;20028;-85
2021/12/05 13:37:15;;;;;;;11.25;10.18;;;;;;;3.91;100.00;100280.88;5254458;28;20055;-84
2021/12/05 13:39:52;;;;;;;10.68;9.77;;;;;;;3.92;100.00;100276.38;5271213;28;20009;-85
2021/12/05 13:42:26;;;;;;;9.77;9.15;;;;;;;4.02;100.00;100288.16;5270818;28;20020;-84
2021/12/05 13:44:59;;;;;;;12.35;10.98;;;;;;;4.08;100.00;100283.72;5270825;28;20020;-83
2021/12/05 13:47:34;;;;;;;10.38;9.68;;;;;;;4.04;100.00;100290.59;5269604;28;20032;-84
2021/12/05 13:50:25;;;;;;;13.82;9.30;;;;;;;4.12;100.00;100286.75;5269803;28;20035;-83
2021/12/05 13:53:01;;;;;;;11.55;10.57;;;;;;;4.12;100.00;100297.44;5269030;28;20048;-83
2021/12/05 13:55:46;;;;;;;12.43;10.70;;;;;;;3.73;100.00;100251.56;5269594;28;20075;-84
2021/12/05 14:01:23;;;;;;;10.30;9.38;;;;;;;3.92;100.00;100273.69;5253443;28;20028;-85
2021/12/05 14:04:24;;;;;;;13.35;12.35;;;;;;;3.67;100.00;100245.25;5251835;28;20020;-86
2021/12/05 14:06:54;;;;;;;;;;;;;;;4.13;100.00;100317.78;5252693;28;20051;-85
2021/12/05 14:09:36;;;;;;;12.20;11.25;;;;;;;4.10;100.00;100318.22;5251980;28;19908;-85
2021/12/05 14:12:18;;;;;;;14.57;12.13;;;;;;;3.41;100.00;100232.25;5252635;28;20029;-85
2021/12/05 14:14:53;;;;;;;13.00;11.82;;;;;;;4.04;100.00;100328.78;5251191;28;20142;-85
2021/12/05 14:17:25;;;;;;;12.88;11.75;;;;;;;3.16;100.00;100208.34;5251535;28;20025;-85
2021/12/05 14:20:07;;;;;;;11.85;11.00;;;;;;;3.73;100.00;100304.97;5252586;28;20025;-84
2021/12/05 14:22:39;;;;;;;13.65;12.57;;;;;;;3.98;100.00;100355.59;5252688;28;20067;-85
2021/12/05 14:25:15;;;;;;;13.80;12.65;;;;;;;3.83;100.00;100344.47;5251277;28;20031;-85
2021/12/05 14:27:49;;;;;;;16.00;14.23;;;;;;;3.34;100.00;100256.34;5252599;28;20028;-85
2021/12/05 14:30:22;;;;;;;17.92;16.27;;;;;;;3.37;100.00;100273.78;5252825;28;20046;-85
2021/12/05 14:32:57;;;;;;;16.25;14.68;;;;;;;3.95;100.00;100362.22;5255734;28;20025;-85
2021/12/05 14:35:32;;;;;;;13.95;12.88;;;;;;;3.51;100.00;100315.28;5255493;28;20478;-85
2021/12/05 14:38:06;;;;;;;14.32;13.02;;;;;;;3.87;100.00;100364.38;5256925;28;20021;-85
2021/12/05 14:40:37;;;;;;;14.27;12.98;;;;;;;3.38;100.00;100288.75;5257117;28;20051;-85
2021/12/05 14:43:11;;;;;;;12.55;11.52;;;;;;;3.85;100.00;100379.78;5255436;28;20389;-85
2021/12/05 14:45:42;;;;;;;13.27;12.30;;;;;;;3.29;100.00;100298.09;5256499;28;20485;-86
2021/12/05 14:48:15;;;;;;;14.15;13.02;;;;;;;3.82;100.00;100380.25;5255523;28;20086;-85
2021/12/05 14:50:47;;;;;;;14.63;13.52;;;;;;;3.56;100.00;100357.31;5256513;28;20113;-85
2021/12/05 14:53:18;;;;;;;13.43;12.32;;;;;;;3.76;100.00;100383.78;5256333;28;20032;-85
2021/12/05 14:55:54;;;;;;;13.48;12.40;;;;;;;3.72;100.00;100384.25;5256355;28;20025;-85
2021/12/05 14:58:27;;;;;;;13.18;12.25;;;;;;;3.10;100.00;100299.13;5270911;28;20091;-85
2021/12/05 15:00:58;;;;;;;14.05;11.95;;;;;;;3.62;100.00;100388.47;5272485;28;20027;-84
2021/12/05 15:03:31;;;;;;;13.35;12.32;;;;;;;3.35;100.00;100366.59;5271323;28;20016;-86
2021/12/05 15:06:05;;;;;;;15.63;13.93;;;;;;;3.67;100.00;100404.66;5272846;28;20036;-84
2021/12/05 15:08:37;;;;;;;21.95;14.23;;;;;;;3.07;100.00;100319.03;5269340;28;20058;-85
2021/12/05 15:11:08;;;;;;;14.27;13.02;;;;;;;2.96;100.00;100306.41;5254846;28;20375;-84
2021/12/05 15:13:38;;;;;;;14.23;13.23;;;;;;;2.97;100.00;100310.72;5256070;28;20032;-85
2021/12/05 15:16:09;;;;;;;12.40;11.40;;;;;;;3.36;100.00;100378.91;5254616;28;20120;-85
2021/12/05 15:18:39;;;;;;;16.98;15.43;;;;;;;2.81;100.00;100304.09;5254841;28;20092;-85
2021/12/05 15:21:10;;;;;;;14.30;13.00;;;;;;;2.98;100.00;100342.50;5256188;28;20084;-85
2021/12/05 15:23:41;;;;;;;13.45;12.45;;;;;;;3.34;100.00;100400.47;5255452;28;20051;-84
2021/12/05 15:26:12;;;;;;;15.25;13.93;;;;;;;2.87;100.00;100345.91;5255662;28;20024;-85
2021/12/05 15:28:43;;;;;;;13.40;12.50;;;;;;;3.53;100.00;100453.88;5255440;28;20084;-85
2021/12/05 15:31:14;;;;;;;12.32;11.25;;;;;;;3.24;100.00;100428.66;5255516;28;20040;-85
2021/12/05 15:33:46;;;;;;;15.15;13.80;;;;;;;2.86;100.00;100359.44;5255147;28;20020;-85
2021/12/05 15:36:16;;;;;;;14.57;13.48;;;;;;;2.83;100.00;100359.88;5255460;28;20103;-85
2021/12/05 15:38:47;;;;;;;14.55;13.52;;;;;;;3.27;100.00;100450.41;5255736;28;20060;-85
2021/12/05 15:41:17;;;;;;;14.25;13.15;;;;;;;2.80;100.00;100369.13;5252967;28;20039;-85
2021/12/05 15:43:48;;;;;;;13.60;12.48;;;;;;;2.86;100.00;100399.44;5253165;28;20021;-85
2021/12/05 15:46:18;;;;;;;15.00;13.85;;;;;;;3.16;100.00;100432.44;5254232;28;20024;-85
2021/12/05 15:48:52;;;;;;;16.83;15.13;;;;;;;3.18;100.00;100441.03;5255281;28;20490;-85
2021/12/05 15:51:24;;;;;;;19.98;17.90;;;;;;;3.19;100.00;100450.66;5255498;28;20082;-85
2021/12/05 15:53:57;;;;;;;18.00;16.33;;;;;;;3.04;100.00;100444.84;5253619;28;20033;-85
2021/12/05 15:56:28;;;;;;;21.27;18.80;;;;;;;3.45;100.00;100502.22;5253844;28;20033;-84
2021/12/05 15:59:02;;;;;;;16.95;15.80;;;;;;;3.37;100.00;100501.44;5254166;28;20031;-85
2021/12/05 16:01:33;;;;;;;17.35;15.98;;;;;;;3.33;100.00;100497.56;5269010;28;20032;-84
2021/12/05 16:04:06;;;;;;;18.85;17.25;;;;;;;3.44;100.00;100513.94;5260558;28;20459;-85
2021/12/05 16:06:39;;;;;;;17.10;15.52;;;;;;;3.43;100.00;100521.13;5254502;28;20031;-85
2021/12/05 16:09:18;;;;;;;16.85;15.50;;;;;;;3.08;100.00;100466.56;5257363;28;20475;-86
2021/12/05 16:11:51;;;;;;;18.67;16.60;;;;;;;3.02;100.00;100474.41;5260450;28;20490;-87
2021/12/05 16:14:38;;;;;;;18.17;16.52;;;;;;;2.68;100.00;100430.31;5259439;28;20030;-85
2021/12/05 16:17:19;;;;;;;16.83;15.32;;;;;;;3.44;100.00;100540.63;5257303;28;20035;-85
2021/12/05 16:20:09;;;;;;;15.68;14.10;;;;;;;3.45;100.00;100548.41;5256096;28;20024;-84
2021/12/05 16:22:58;;;;;;;17.60;15.90;;;;;;;3.43;100.00;100560.34;5256910;28;20027;-85
2021/12/05 16:25:29;;;;;;;17.73;16.33;;;;;;;3.12;100.00;100513.94;5260211;28;20021;-85
2021/12/05 16:28:02;;;;;;;21.48;19.75;;;;;;;3.07;100.00;100513.78;5268487;28;20096;-84
2021/12/05 16:30:36;;;;;;;24.88;20.08;;;;;;;3.38;100.00;100566.31;5271409;28;20024;-84
2021/12/05 16:33:07;;;;;;;19.33;17.27;;;;;;;3.34;100.00;100565.94;5271043;28;20029;-84
2021/12/05 16:35:46;;;;;;;19.13;17.48;;;;;;;3.28;100.00;100557.97;5269347;28;20013;-84
2021/12/05 16:38:31;;;;;;;21.30;19.15;;;;;;;3.38;100.00;100583.16;5270424;28;20025;-86
2021/12/05 16:41:10;;;;;;;17.88;16.48;;;;;;;3.37;100.00;100584.19;5270339;28;20054;-84
2021/12/05 16:44:15;;;;;;;20.53;18.83;;;;;;;3.31;100.00;100574.38;5268962;28;20024;-85
2021/12/05 16:46:50;;;;;;;21.02;19.33;;;;;;;3.32;100.00;100591.19;5271259;28;20013;-84
2021/12/05 16:49:42;;;;;;;19.52;17.90;;;;;;;3.34;100.00;100597.94;5271359;28;20115;-84
2021/12/05 16:52:23;;;;;;;21.17;17.48;;;;;;;3.22;100.00;100580.97;5270864;28;20028;-84
2021/12/05 16:54:58;;;;;;;25.08;22.42;;;;;;;3.20;100.00;100585.72;5276583;22;20072;-84
2021/12/05 16:57:39;;;;;;;22.38;20.25;;;;;;;3.25;100.00;100585.06;5251518;28;20016;-86
2021/12/05 17:00:18;;;;;;;21.90;19.73;;;;;;;3.34;100.00;100599.81;5252947;28;20020;-85
2021/12/05 17:02:54;;;;;;;20.30;18.33;;;;;;;3.33;100.00;100607.00;5253049;28;20047;-85
2021/12/05 17:05:42;;;;;;;22.33;20.23;;;;;;;3.18;100.00;100584.28;5252326;28;20028;-85
2021/12/05 17:08:25;;;;;;;20.73;19.08;;;;;;;2.98;100.00;100558.56;5252452;28;20081;-86
2021/12/05 17:11:02;;;;;;;20.42;18.63;;;;;;;2.97;100.00;100556.09;5251539;28;20020;-85
2021/12/05 17:13:38;;;;;;;20.40;18.70;;;;;;;3.34;100.00;100613.97;5252778;28;20047;-84
2021/12/05 17:16:13;;;;;;;20.48;18.92;;;;;;;3.18;100.00;100594.97;5253469;28;20031;-85
2021/12/05 17:18:57;;;;;;;22.60;20.75;;;;;;;3.34;100.00;100621.97;5254588;28;20474;-85
2021/12/05 17:21:57;;;;;;;21.83;19.83;;;;;;;3.35;100.00;100609.44;5253161;28;20466;-86